sensor_id;sensor_type;location;lat;lon;timestamp;temperature;humidity
57857;DHT22;43683;48.650;9.290;2023-03-02T00:04:07;0.50;69.70
57857;DHT22;43683;48.650;9.290;2023-03-02T00:06:35;0.50;69.80
57857;DHT22;43683;48.650;9.290;2023-03-02T00:09:02;0.50;69.80
57857;DHT22;43683;48.650;9.290;2023-03-02T00:11:29;0.50;70.20
57857;DHT22;43683;48.650;9.290;2023-03-02T00:13:56;0.50;69.60
57857;DHT22;43683;48.650;9.290;2023-03-02T00:16:21;0.40;69.70
57857;DHT22;43683;48.650;9.290;2023-03-02T00:18:47;0.30;69.90
57857;DHT22;43683;48.650;9.290;2023-03-02T00:21:12;0.30;70.10
57857;DHT22;43683;48.650;9.290;2023-03-02T00:23:38;0.20;70.20
57857;DHT22;43683;48.650;9.290;2023-03-02T00:26:06;0.20;70.30
57857;DHT22;43683;48.650;9.290;2023-03-02T00:28:33;0.20;70.60
57857;DHT22;43683;48.650;9.290;2023-03-02T00:30:58;0.10;70.70
57857;DHT22;43683;48.650;9.290;2023-03-02T00:33:24;0.10;70.70
57857;DHT22;43683;48.650;9.290;2023-03-02T00:35:49;0.00;70.90
57857;DHT22;43683;48.650;9.290;2023-03-02T00:38:15;0.00;70.90
57857;DHT22;43683;48.650;9.290;2023-03-02T00:40:44;0.10;71.00
57857;DHT22;43683;48.650;9.290;2023-03-02T00:43:11;-0.10;71.10
57857;DHT22;43683;48.650;9.290;2023-03-02T00:45:36;-0.10;71.20
57857;DHT22;43683;48.650;9.290;2023-03-02T00:48:02;0.00;72.10
57857;DHT22;43683;48.650;9.290;2023-03-02T00:50:27;-0.10;71.30
57857;DHT22;43683;48.650;9.290;2023-03-02T00:52:53;-0.10;71.40
57857;DHT22;43683;48.650;9.290;2023-03-02T00:55:18;-0.10;71.40
57857;DHT22;43683;48.650;9.290;2023-03-02T00:57:44;-0.10;71.50
57857;DHT22;43683;48.650;9.290;2023-03-02T01:00:22;-0.20;71.70
57857;DHT22;43683;48.650;9.290;2023-03-02T01:02:48;-0.30;71.80
57857;DHT22;43683;48.650;9.290;2023-03-02T01:05:15;-0.30;71.90
57857;DHT22;43683;48.650;9.290;2023-03-02T01:07:40;-0.40;72.10
57857;DHT22;43683;48.650;9.290;2023-03-02T01:10:06;-0.50;72.50
57857;DHT22;43683;48.650;9.290;2023-03-02T01:12:32;-0.40;72.50
57857;DHT22;43683;48.650;9.290;2023-03-02T01:14:57;-0.50;72.50
57857;DHT22;43683;48.650;9.290;2023-03-02T01:17:23;-0.50;72.70
57857;DHT22;43683;48.650;9.290;2023-03-02T01:19:50;-0.50;72.60
57857;DHT22;43683;48.650;9.290;2023-03-02T01:22:16;-0.50;72.60
57857;DHT22;43683;48.650;9.290;2023-03-02T01:24:42;-0.50;72.60
57857;DHT22;43683;48.650;9.290;2023-03-02T01:27:07;-0.50;72.60
57857;DHT22;43683;48.650;9.290;2023-03-02T01:29:33;-0.60;72.80
57857;DHT22;43683;48.650;9.290;2023-03-02T01:31:58;-0.60;73.00
57857;DHT22;43683;48.650;9.290;2023-03-02T01:34:25;-0.60;73.00
57857;DHT22;43683;48.650;9.290;2023-03-02T01:36:51;-0.60;72.90
57857;DHT22;43683;48.650;9.290;2023-03-02T01:39:16;-0.60;73.00
57857;DHT22;43683;48.650;9.290;2023-03-02T01:41:43;-0.60;73.00
57857;DHT22;43683;48.650;9.290;2023-03-02T01:44:38;-0.60;73.00
57857;DHT22;43683;48.650;9.290;2023-03-02T01:52:41;-0.80;73.60
57857;DHT22;43683;48.650;9.290;2023-03-02T01:55:09;-0.80;73.50
57857;DHT22;43683;48.650;9.290;2023-03-02T01:57:40;-0.80;73.70
57857;DHT22;43683;48.650;9.290;2023-03-02T02:00:32;-0.70;73.60
57857;DHT22;43683;48.650;9.290;2023-03-02T02:03:04;-0.70;73.50
57857;DHT22;43683;48.650;9.290;2023-03-02T02:05:35;-0.70;73.30
57857;DHT22;43683;48.650;9.290;2023-03-02T02:08:02;-0.60;73.20
57857;DHT22;43683;48.650;9.290;2023-03-02T02:10:29;-0.60;73.10
57857;DHT22;43683;48.650;9.290;2023-03-02T02:12:55;-0.50;73.20
57857;DHT22;43683;48.650;9.290;2023-03-02T02:15:21;-0.50;73.30
57857;DHT22;43683;48.650;9.290;2023-03-02T02:17:47;-0.60;73.40
57857;DHT22;43683;48.650;9.290;2023-03-02T02:20:36;-0.60;73.60
57857;DHT22;43683;48.650;9.290;2023-03-02T02:26:11;-0.70;74.00
57857;DHT22;43683;48.650;9.290;2023-03-02T02:28:42;-0.70;74.00
57857;DHT22;43683;48.650;9.290;2023-03-02T02:31:37;-0.80;74.10
57857;DHT22;43683;48.650;9.290;2023-03-02T02:34:18;-0.80;74.30
57857;DHT22;43683;48.650;9.290;2023-03-02T02:36:51;-0.80;74.30
57857;DHT22;43683;48.650;9.290;2023-03-02T02:39:22;-0.80;74.30
57857;DHT22;43683;48.650;9.290;2023-03-02T02:41:50;-0.90;74.30
57857;DHT22;43683;48.650;9.290;2023-03-02T02:44:17;-0.90;74.50
57857;DHT22;43683;48.650;9.290;2023-03-02T02:46:43;-1.00;74.70
57857;DHT22;43683;48.650;9.290;2023-03-02T02:49:20;-1.10;75.00
57857;DHT22;43683;48.650;9.290;2023-03-02T02:51:50;-1.20;75.30
57857;DHT22;43683;48.650;9.290;2023-03-02T02:54:17;-1.30;75.50
57857;DHT22;43683;48.650;9.290;2023-03-02T02:56:43;-1.40;75.60
57857;DHT22;43683;48.650;9.290;2023-03-02T02:59:23;-1.50;75.80
57857;DHT22;43683;48.650;9.290;2023-03-02T03:01:49;-1.70;76.20
57857;DHT22;43683;48.650;9.290;2023-03-02T03:04:20;-1.80;76.30
57857;DHT22;43683;48.650;9.290;2023-03-02T03:06:56;-1.90;76.50
57857;DHT22;43683;48.650;9.290;2023-03-02T03:09:22;-2.00;76.70
57857;DHT22;43683;48.650;9.290;2023-03-02T03:12:10;-2.10;76.60
57857;DHT22;43683;48.650;9.290;2023-03-02T03:14:39;-2.20;76.70
57857;DHT22;43683;48.650;9.290;2023-03-02T03:17:05;-2.20;76.70
57857;DHT22;43683;48.650;9.290;2023-03-02T03:19:37;-2.20;76.80
57857;DHT22;43683;48.650;9.290;2023-03-02T03:22:02;-2.30;76.70
57857;DHT22;43683;48.650;9.290;2023-03-02T03:24:30;-2.30;76.70
57857;DHT22;43683;48.650;9.290;2023-03-02T03:26:57;-2.30;76.70
57857;DHT22;43683;48.650;9.290;2023-03-02T03:29:25;-2.30;76.80
57857;DHT22;43683;48.650;9.290;2023-03-02T03:31:51;-2.30;76.80
57857;DHT22;43683;48.650;9.290;2023-03-02T03:34:18;-2.30;76.50
57857;DHT22;43683;48.650;9.290;2023-03-02T03:36:43;-2.20;76.30
57857;DHT22;43683;48.650;9.290;2023-03-02T03:39:10;-2.20;76.30
57857;DHT22;43683;48.650;9.290;2023-03-02T03:41:36;-2.20;76.30
57857;DHT22;43683;48.650;9.290;2023-03-02T03:44:02;-2.20;76.30
57857;DHT22;43683;48.650;9.290;2023-03-02T03:46:28;-2.10;76.30
57857;DHT22;43683;48.650;9.290;2023-03-02T03:48:54;-2.00;76.30
57857;DHT22;43683;48.650;9.290;2023-03-02T03:51:20;-1.90;76.20
57857;DHT22;43683;48.650;9.290;2023-03-02T03:53:46;-1.90;76.10
57857;DHT22;43683;48.650;9.290;2023-03-02T03:56:21;-1.90;76.20
57857;DHT22;43683;48.650;9.290;2023-03-02T03:58:47;-1.90;76.30
57857;DHT22;43683;48.650;9.290;2023-03-02T04:01:12;-1.90;76.40
57857;DHT22;43683;48.650;9.290;2023-03-02T04:03:38;-1.90;76.50
57857;DHT22;43683;48.650;9.290;2023-03-02T04:06:03;-1.90;76.60
57857;DHT22;43683;48.650;9.290;2023-03-02T04:08:29;-1.90;76.80
57857;DHT22;43683;48.650;9.290;2023-03-02T04:10:54;-1.90;76.80
57857;DHT22;43683;48.650;9.290;2023-03-02T04:13:20;-1.90;76.90
57857;DHT22;43683;48.650;9.290;2023-03-02T04:15:45;-2.00;77.00
57857;DHT22;43683;48.650;9.290;2023-03-02T04:18:11;-2.00;77.00
57857;DHT22;43683;48.650;9.290;2023-03-02T04:20:36;-2.00;77.20
57857;DHT22;43683;48.650;9.290;2023-03-02T04:23:02;-2.10;77.20
57857;DHT22;43683;48.650;9.290;2023-03-02T04:25:28;-2.10;77.30
57857;DHT22;43683;48.650;9.290;2023-03-02T04:27:54;-2.00;77.30
57857;DHT22;43683;48.650;9.290;2023-03-02T04:30:23;-2.00;77.30
57857;DHT22;43683;48.650;9.290;2023-03-02T04:32:49;-2.00;77.30
57857;DHT22;43683;48.650;9.290;2023-03-02T04:35:15;-1.80;77.10
57857;DHT22;43683;48.650;9.290;2023-03-02T04:37:41;-1.70;76.90
57857;DHT22;43683;48.650;9.290;2023-03-02T04:40:07;-1.60;76.80
57857;DHT22;43683;48.650;9.290;2023-03-02T04:42:34;-1.50;76.70
57857;DHT22;43683;48.650;9.290;2023-03-02T04:44:59;-1.40;76.60
57857;DHT22;43683;48.650;9.290;2023-03-02T04:47:25;-1.20;76.40
57857;DHT22;43683;48.650;9.290;2023-03-02T04:49:51;-1.00;76.00
57857;DHT22;43683;48.650;9.290;2023-03-02T04:52:19;-0.70;75.50
57857;DHT22;43683;48.650;9.290;2023-03-02T04:54:45;-0.50;75.00
57857;DHT22;43683;48.650;9.290;2023-03-02T04:57:11;-0.30;74.70
57857;DHT22;43683;48.650;9.290;2023-03-02T04:59:36;-0.20;74.50
57857;DHT22;43683;48.650;9.290;2023-03-02T05:02:02;-0.20;74.50
57857;DHT22;43683;48.650;9.290;2023-03-02T05:04:28;-0.10;74.60
57857;DHT22;43683;48.650;9.290;2023-03-02T05:06:54;0.00;74.60
57857;DHT22;43683;48.650;9.290;2023-03-02T05:09:20;0.10;74.60
57857;DHT22;43683;48.650;9.290;2023-03-02T05:11:52;0.20;74.60
57857;DHT22;43683;48.650;9.290;2023-03-02T05:14:17;0.20;74.40
57857;DHT22;43683;48.650;9.290;2023-03-02T05:16:43;0.40;74.40
57857;DHT22;43683;48.650;9.290;2023-03-02T05:19:10;0.40;74.30
57857;DHT22;43683;48.650;9.290;2023-03-02T05:21:36;0.50;74.40
57857;DHT22;43683;48.650;9.290;2023-03-02T05:24:02;0.60;74.80
57857;DHT22;43683;48.650;9.290;2023-03-02T05:26:27;0.60;74.30
57857;DHT22;43683;48.650;9.290;2023-03-02T05:28:53;0.70;74.30
57857;DHT22;43683;48.650;9.290;2023-03-02T05:31:26;0.70;74.20
57857;DHT22;43683;48.650;9.290;2023-03-02T05:33:53;0.80;74.30
57857;DHT22;43683;48.650;9.290;2023-03-02T05:36:18;0.80;74.10
57857;DHT22;43683;48.650;9.290;2023-03-02T05:38:44;0.80;74.10
57857;DHT22;43683;48.650;9.290;2023-03-02T05:41:09;0.80;74.10
57857;DHT22;43683;48.650;9.290;2023-03-02T05:43:35;0.90;74.10
57857;DHT22;43683;48.650;9.290;2023-03-02T05:46:01;0.90;74.10
57857;DHT22;43683;48.650;9.290;2023-03-02T05:48:28;0.90;74.10
57857;DHT22;43683;48.650;9.290;2023-03-02T05:50:54;0.90;74.20
57857;DHT22;43683;48.650;9.290;2023-03-02T05:53:19;0.90;74.20
57857;DHT22;43683;48.650;9.290;2023-03-02T05:55:45;1.00;74.20
57857;DHT22;43683;48.650;9.290;2023-03-02T05:58:15;1.00;74.30
57857;DHT22;43683;48.650;9.290;2023-03-02T06:00:41;1.00;74.30
57857;DHT22;43683;48.650;9.290;2023-03-02T06:03:07;1.10;74.30
57857;DHT22;43683;48.650;9.290;2023-03-02T06:05:33;1.10;74.20
57857;DHT22;43683;48.650;9.290;2023-03-02T06:07:59;1.10;74.20
57857;DHT22;43683;48.650;9.290;2023-03-02T06:10:25;1.20;74.30
57857;DHT22;43683;48.650;9.290;2023-03-02T06:12:50;1.20;74.30
57857;DHT22;43683;48.650;9.290;2023-03-02T06:15:16;1.20;74.30
57857;DHT22;43683;48.650;9.290;2023-03-02T06:17:42;1.20;74.30
57857;DHT22;43683;48.650;9.290;2023-03-02T06:20:08;1.20;74.30
57857;DHT22;43683;48.650;9.290;2023-03-02T06:22:36;1.30;74.30
57857;DHT22;43683;48.650;9.290;2023-03-02T06:25:03;1.30;74.20
57857;DHT22;43683;48.650;9.290;2023-03-02T06:27:28;1.20;74.00
57857;DHT22;43683;48.650;9.290;2023-03-02T06:29:54;1.30;73.90
57857;DHT22;43683;48.650;9.290;2023-03-02T06:32:19;1.30;73.90
57857;DHT22;43683;48.650;9.290;2023-03-02T06:34:45;1.30;73.90
57857;DHT22;43683;48.650;9.290;2023-03-02T06:37:10;1.30;74.00
57857;DHT22;43683;48.650;9.290;2023-03-02T06:39:36;1.30;74.00
57857;DHT22;43683;48.650;9.290;2023-03-02T06:42:02;1.40;74.00
57857;DHT22;43683;48.650;9.290;2023-03-02T06:44:27;1.40;74.60
57857;DHT22;43683;48.650;9.290;2023-03-02T06:46:53;1.50;73.90
57857;DHT22;43683;48.650;9.290;2023-03-02T06:49:18;1.50;73.80
57857;DHT22;43683;48.650;9.290;2023-03-02T06:51:45;1.60;73.80
57857;DHT22;43683;48.650;9.290;2023-03-02T06:54:10;1.60;73.80
57857;DHT22;43683;48.650;9.290;2023-03-02T06:56:36;1.60;73.60
57857;DHT22;43683;48.650;9.290;2023-03-02T06:59:01;1.70;73.60
57857;DHT22;43683;48.650;9.290;2023-03-02T07:01:27;1.80;73.60
57857;DHT22;43683;48.650;9.290;2023-03-02T07:03:57;1.80;73.60
57857;DHT22;43683;48.650;9.290;2023-03-02T07:06:23;1.90;73.50
57857;DHT22;43683;48.650;9.290;2023-03-02T07:08:48;1.90;73.40
57857;DHT22;43683;48.650;9.290;2023-03-02T07:11:14;1.90;73.30
57857;DHT22;43683;48.650;9.290;2023-03-02T07:13:40;1.90;73.30
57857;DHT22;43683;48.650;9.290;2023-03-02T07:16:10;2.00;73.30
57857;DHT22;43683;48.650;9.290;2023-03-02T07:18:36;2.00;73.40
57857;DHT22;43683;48.650;9.290;2023-03-02T07:21:02;2.00;73.30
57857;DHT22;43683;48.650;9.290;2023-03-02T07:23:28;2.00;73.30
57857;DHT22;43683;48.650;9.290;2023-03-02T07:25:54;2.00;73.30
57857;DHT22;43683;48.650;9.290;2023-03-02T07:28:20;2.10;73.30
57857;DHT22;43683;48.650;9.290;2023-03-02T07:30:51;2.20;73.30
57857;DHT22;43683;48.650;9.290;2023-03-02T07:33:18;2.20;73.20
57857;DHT22;43683;48.650;9.290;2023-03-02T07:35:44;2.30;73.00
57857;DHT22;43683;48.650;9.290;2023-03-02T07:38:09;2.40;72.90
57857;DHT22;43683;48.650;9.290;2023-03-02T07:40:35;2.60;72.90
57857;DHT22;43683;48.650;9.290;2023-03-02T07:43:04;2.70;72.70
57857;DHT22;43683;48.650;9.290;2023-03-02T07:45:29;2.80;72.60
57857;DHT22;43683;48.650;9.290;2023-03-02T07:47:55;2.80;72.50
57857;DHT22;43683;48.650;9.290;2023-03-02T07:50:20;2.90;72.50
57857;DHT22;43683;48.650;9.290;2023-03-02T07:52:46;2.90;72.40
57857;DHT22;43683;48.650;9.290;2023-03-02T07:55:11;3.00;72.40
57857;DHT22;43683;48.650;9.290;2023-03-02T07:57:37;3.00;72.40
57857;DHT22;43683;48.650;9.290;2023-03-02T08:00:03;3.00;72.40
57857;DHT22;43683;48.650;9.290;2023-03-02T08:02:29;3.00;72.50
57857;DHT22;43683;48.650;9.290;2023-03-02T08:04:55;3.00;72.60
57857;DHT22;43683;48.650;9.290;2023-03-02T08:07:20;3.00;72.70
57857;DHT22;43683;48.650;9.290;2023-03-02T08:09:46;2.90;72.70
57857;DHT22;43683;48.650;9.290;2023-03-02T08:12:11;2.90;72.60
57857;DHT22;43683;48.650;9.290;2023-03-02T08:14:37;3.00;72.70
57857;DHT22;43683;48.650;9.290;2023-03-02T08:17:04;3.00;72.60
57857;DHT22;43683;48.650;9.290;2023-03-02T08:19:30;3.00;72.60
57857;DHT22;43683;48.650;9.290;2023-03-02T08:21:55;3.00;72.50
57857;DHT22;43683;48.650;9.290;2023-03-02T08:24:21;3.10;72.40
57857;DHT22;43683;48.650;9.290;2023-03-02T08:26:46;3.20;72.20
57857;DHT22;43683;48.650;9.290;2023-03-02T08:29:12;3.40;72.00
57857;DHT22;43683;48.650;9.290;2023-03-02T08:31:38;3.50;71.80
57857;DHT22;43683;48.650;9.290;2023-03-02T08:34:03;3.60;71.60
57857;DHT22;43683;48.650;9.290;2023-03-02T08:36:29;3.70;71.40
57857;DHT22;43683;48.650;9.290;2023-03-02T08:38:54;3.90;71.10
57857;DHT22;43683;48.650;9.290;2023-03-02T08:41:22;4.20;70.80
57857;DHT22;43683;48.650;9.290;2023-03-02T08:43:48;4.50;70.40
57857;DHT22;43683;48.650;9.290;2023-03-02T08:46:16;4.60;70.10
57857;DHT22;43683;48.650;9.290;2023-03-02T08:48:42;4.80;69.90
57857;DHT22;43683;48.650;9.290;2023-03-02T08:51:11;5.00;69.60
57857;DHT22;43683;48.650;9.290;2023-03-02T08:53:40;5.10;69.40
57857;DHT22;43683;48.650;9.290;2023-03-02T08:58:49;5.60;69.10
57857;DHT22;43683;48.650;9.290;2023-03-02T09:01:17;5.70;68.80
57857;DHT22;43683;48.650;9.290;2023-03-02T09:03:44;5.80;68.80
57857;DHT22;43683;48.650;9.290;2023-03-02T09:06:09;5.80;68.80
57857;DHT22;43683;48.650;9.290;2023-03-02T09:08:36;6.10;68.60
57857;DHT22;43683;48.650;9.290;2023-03-02T09:11:01;6.30;68.20
57857;DHT22;43683;48.650;9.290;2023-03-02T09:13:27;6.50;67.90
57857;DHT22;43683;48.650;9.290;2023-03-02T09:15:52;6.60;67.80
57857;DHT22;43683;48.650;9.290;2023-03-02T09:18:18;6.70;67.80
57857;DHT22;43683;48.650;9.290;2023-03-02T09:20:43;6.80;68.30
57857;DHT22;43683;48.650;9.290;2023-03-02T09:23:09;6.80;67.50
57857;DHT22;43683;48.650;9.290;2023-03-02T09:25:36;7.00;67.40
57857;DHT22;43683;48.650;9.290;2023-03-02T09:28:02;7.00;67.20
57857;DHT22;43683;48.650;9.290;2023-03-02T09:30:27;7.20;67.10
57857;DHT22;43683;48.650;9.290;2023-03-02T09:32:53;7.40;66.60
57857;DHT22;43683;48.650;9.290;2023-03-02T09:35:18;7.50;66.70
57857;DHT22;43683;48.650;9.290;2023-03-02T09:37:44;7.70;66.40
57857;DHT22;43683;48.650;9.290;2023-03-02T09:40:17;7.90;66.00
57857;DHT22;43683;48.650;9.290;2023-03-02T09:43:02;8.00;65.70
57857;DHT22;43683;48.650;9.290;2023-03-02T09:48:21;8.20;66.20
57857;DHT22;43683;48.650;9.290;2023-03-02T09:53:37;8.40;64.70
57857;DHT22;43683;48.650;9.290;2023-03-02T09:56:11;8.40;65.10
57857;DHT22;43683;48.650;9.290;2023-03-02T09:58:38;8.60;64.80
57857;DHT22;43683;48.650;9.290;2023-03-02T10:01:31;8.80;64.70
57857;DHT22;43683;48.650;9.290;2023-03-02T10:04:38;8.90;64.10
57857;DHT22;43683;48.650;9.290;2023-03-02T10:09:40;9.40;63.50
57857;DHT22;43683;48.650;9.290;2023-03-02T10:15:09;9.50;63.70
57857;DHT22;43683;48.650;9.290;2023-03-02T10:20:16;9.60;63.90
57857;DHT22;43683;48.650;9.290;2023-03-02T10:22:47;9.50;63.30
57857;DHT22;43683;48.650;9.290;2023-03-02T10:25:42;9.40;63.90
57857;DHT22;43683;48.650;9.290;2023-03-02T10:28:15;9.50;63.90
57857;DHT22;43683;48.650;9.290;2023-03-02T10:30:42;9.30;63.60
57857;DHT22;43683;48.650;9.290;2023-03-02T10:33:18;9.50;63.40
57857;DHT22;43683;48.650;9.290;2023-03-02T10:35:48;9.60;62.90
57857;DHT22;43683;48.650;9.290;2023-03-02T10:38:16;9.70;62.70
57857;DHT22;43683;48.650;9.290;2023-03-02T10:43:47;9.70;62.60
57857;DHT22;43683;48.650;9.290;2023-03-02T10:46:14;9.60;62.40
57857;DHT22;43683;48.650;9.290;2023-03-02T10:48:56;9.70;62.60
57857;DHT22;43683;48.650;9.290;2023-03-02T10:51:28;9.60;62.30
57857;DHT22;43683;48.650;9.290;2023-03-02T10:54:09;9.70;62.30
57857;DHT22;43683;48.650;9.290;2023-03-02T10:56:35;9.50;62.50
57857;DHT22;43683;48.650;9.290;2023-03-02T10:59:10;9.20;63.30
57857;DHT22;43683;48.650;9.290;2023-03-02T11:01:36;8.90;64.10
57857;DHT22;43683;48.650;9.290;2023-03-02T11:04:01;8.60;64.80
57857;DHT22;43683;48.650;9.290;2023-03-02T11:06:28;8.10;65.50
57857;DHT22;43683;48.650;9.290;2023-03-02T11:09:05;7.90;65.80
57857;DHT22;43683;48.650;9.290;2023-03-02T11:11:31;8.00;65.90
57857;DHT22;43683;48.650;9.290;2023-03-02T11:14:16;8.20;65.80
57857;DHT22;43683;48.650;9.290;2023-03-02T11:16:42;8.80;65.00
57857;DHT22;43683;48.650;9.290;2023-03-02T11:19:37;9.40;64.50
57857;DHT22;43683;48.650;9.290;2023-03-02T11:22:22;10.00;63.40
57857;DHT22;43683;48.650;9.290;2023-03-02T11:24:55;10.40;62.60
57857;DHT22;43683;48.650;9.290;2023-03-02T11:27:25;10.40;62.30
57857;DHT22;43683;48.650;9.290;2023-03-02T11:29:58;10.20;62.60
57857;DHT22;43683;48.650;9.290;2023-03-02T11:35:14;10.10;62.80
57857;DHT22;43683;48.650;9.290;2023-03-02T11:37:49;10.10;62.90
57857;DHT22;43683;48.650;9.290;2023-03-02T11:40:34;10.50;62.60
57857;DHT22;43683;48.650;9.290;2023-03-02T11:43:01;11.00;62.80
57857;DHT22;43683;48.650;9.290;2023-03-02T11:45:33;11.30;61.50
57857;DHT22;43683;48.650;9.290;2023-03-02T11:48:11;11.50;61.20
57857;DHT22;43683;48.650;9.290;2023-03-02T11:50:59;11.70;61.00
57857;DHT22;43683;48.650;9.290;2023-03-02T11:53:32;12.00;60.80
57857;DHT22;43683;48.650;9.290;2023-03-02T11:56:00;11.90;60.70
57857;DHT22;43683;48.650;9.290;2023-03-02T11:58:28;11.30;61.50
57857;DHT22;43683;48.650;9.290;2023-03-02T12:00:54;10.80;62.00
57857;DHT22;43683;48.650;9.290;2023-03-02T12:03:35;10.90;61.40
57857;DHT22;43683;48.650;9.290;2023-03-02T12:08:33;10.80;61.30
57857;DHT22;43683;48.650;9.290;2023-03-02T12:22:01;10.70;60.90
57857;DHT22;43683;48.650;9.290;2023-03-02T12:24:32;10.80;60.30
57857;DHT22;43683;48.650;9.290;2023-03-02T12:27:19;11.20;59.80
57857;DHT22;43683;48.650;9.290;2023-03-02T12:32:24;11.70;58.70
57857;DHT22;43683;48.650;9.290;2023-03-02T12:35:09;11.80;58.50
57857;DHT22;43683;48.650;9.290;2023-03-02T12:37:52;11.90;58.30
57857;DHT22;43683;48.650;9.290;2023-03-02T12:46:22;12.50;57.40
57857;DHT22;43683;48.650;9.290;2023-03-02T12:54:15;12.10;57.60
57857;DHT22;43683;48.650;9.290;2023-03-02T12:56:41;12.30;57.40
57857;DHT22;43683;48.650;9.290;2023-03-02T12:59:20;12.50;57.10
57857;DHT22;43683;48.650;9.290;2023-03-02T13:01:46;12.50;56.40
57857;DHT22;43683;48.650;9.290;2023-03-02T13:04:20;12.60;56.30
57857;DHT22;43683;48.650;9.290;2023-03-02T13:06:46;12.60;55.90
57857;DHT22;43683;48.650;9.290;2023-03-02T13:09:14;12.70;55.90
57857;DHT22;43683;48.650;9.290;2023-03-02T13:11:41;12.70;55.60
57857;DHT22;43683;48.650;9.290;2023-03-02T13:14:19;12.90;55.60
57857;DHT22;43683;48.650;9.290;2023-03-02T13:17:01;13.20;55.20
57857;DHT22;43683;48.650;9.290;2023-03-02T13:19:27;13.20;54.90
57857;DHT22;43683;48.650;9.290;2023-03-02T13:21:55;13.20;55.20
57857;DHT22;43683;48.650;9.290;2023-03-02T13:24:31;13.40;55.10
57857;DHT22;43683;48.650;9.290;2023-03-02T13:27:03;13.10;55.00
57857;DHT22;43683;48.650;9.290;2023-03-02T13:29:29;13.00;54.80
57857;DHT22;43683;48.650;9.290;2023-03-02T13:31:56;13.00;54.60
57857;DHT22;43683;48.650;9.290;2023-03-02T13:34:26;12.90;54.40
57857;DHT22;43683;48.650;9.290;2023-03-02T13:36:52;12.80;54.40
57857;DHT22;43683;48.650;9.290;2023-03-02T13:39:25;12.80;54.70
57857;DHT22;43683;48.650;9.290;2023-03-02T13:42:02;12.90;54.50
57857;DHT22;43683;48.650;9.290;2023-03-02T13:44:30;13.20;54.40
57857;DHT22;43683;48.650;9.290;2023-03-02T13:46:56;13.10;54.20
57857;DHT22;43683;48.650;9.290;2023-03-02T13:49:30;13.10;54.10
57857;DHT22;43683;48.650;9.290;2023-03-02T13:52:05;13.20;54.00
57857;DHT22;43683;48.650;9.290;2023-03-02T13:54:36;13.40;54.30
57857;DHT22;43683;48.650;9.290;2023-03-02T13:57:03;13.20;53.60
57857;DHT22;43683;48.650;9.290;2023-03-02T13:59:29;13.30;53.70
57857;DHT22;43683;48.650;9.290;2023-03-02T14:01:56;13.40;53.70
57857;DHT22;43683;48.650;9.290;2023-03-02T14:04:22;13.40;53.80
57857;DHT22;43683;48.650;9.290;2023-03-02T14:06:49;13.60;53.70
57857;DHT22;43683;48.650;9.290;2023-03-02T14:09:15;13.80;53.60
57857;DHT22;43683;48.650;9.290;2023-03-02T14:11:43;13.80;53.60
57857;DHT22;43683;48.650;9.290;2023-03-02T14:14:18;13.70;53.40
57857;DHT22;43683;48.650;9.290;2023-03-02T14:16:50;13.70;53.20
57857;DHT22;43683;48.650;9.290;2023-03-02T14:19:16;13.80;53.40
57857;DHT22;43683;48.650;9.290;2023-03-02T14:21:45;13.70;53.40
57857;DHT22;43683;48.650;9.290;2023-03-02T14:24:12;13.70;53.30
57857;DHT22;43683;48.650;9.290;2023-03-02T14:26:40;13.70;53.20
57857;DHT22;43683;48.650;9.290;2023-03-02T14:29:28;13.80;53.10
57857;DHT22;43683;48.650;9.290;2023-03-02T14:32:00;13.80;52.70
57857;DHT22;43683;48.650;9.290;2023-03-02T14:34:28;14.00;52.90
57857;DHT22;43683;48.650;9.290;2023-03-02T14:36:55;13.90;52.80
57857;DHT22;43683;48.650;9.290;2023-03-02T14:41:59;13.70;52.70
57857;DHT22;43683;48.650;9.290;2023-03-02T14:44:25;13.70;53.10
57857;DHT22;43683;48.650;9.290;2023-03-02T14:46:51;13.70;53.00
57857;DHT22;43683;48.650;9.290;2023-03-02T14:49:17;13.90;52.90
57857;DHT22;43683;48.650;9.290;2023-03-02T14:51:47;14.00;52.70
57857;DHT22;43683;48.650;9.290;2023-03-02T14:54:18;14.00;52.40
57857;DHT22;43683;48.650;9.290;2023-03-02T14:56:44;13.70;52.80
57857;DHT22;43683;48.650;9.290;2023-03-02T14:59:12;13.60;53.00
57857;DHT22;43683;48.650;9.290;2023-03-02T15:01:38;13.40;53.00
57857;DHT22;43683;48.650;9.290;2023-03-02T15:04:04;13.30;53.20
57857;DHT22;43683;48.650;9.290;2023-03-02T15:06:32;13.30;53.20
57857;DHT22;43683;48.650;9.290;2023-03-02T15:08:59;13.10;53.10
57857;DHT22;43683;48.650;9.290;2023-03-02T15:11:26;12.80;53.40
57857;DHT22;43683;48.650;9.290;2023-03-02T15:13:52;12.60;53.70
57857;DHT22;43683;48.650;9.290;2023-03-02T15:16:18;12.40;53.80
57857;DHT22;43683;48.650;9.290;2023-03-02T15:18:44;12.40;53.70
57857;DHT22;43683;48.650;9.290;2023-03-02T15:21:14;12.40;53.70
57857;DHT22;43683;48.650;9.290;2023-03-02T15:23:40;12.20;53.90
57857;DHT22;43683;48.650;9.290;2023-03-02T15:26:06;12.00;54.00
57857;DHT22;43683;48.650;9.290;2023-03-02T15:28:31;11.80;54.20
57857;DHT22;43683;48.650;9.290;2023-03-02T15:31:04;11.70;54.70
57857;DHT22;43683;48.650;9.290;2023-03-02T15:33:30;11.70;55.00
57857;DHT22;43683;48.650;9.290;2023-03-02T15:35:55;11.40;55.00
57857;DHT22;43683;48.650;9.290;2023-03-02T15:38:21;11.30;55.20
57857;DHT22;43683;48.650;9.290;2023-03-02T15:40:46;11.10;55.30
57857;DHT22;43683;48.650;9.290;2023-03-02T15:43:12;10.90;55.30
57857;DHT22;43683;48.650;9.290;2023-03-02T15:45:43;10.50;55.40
57857;DHT22;43683;48.650;9.290;2023-03-02T15:48:09;10.10;55.90
57857;DHT22;43683;48.650;9.290;2023-03-02T15:50:34;9.70;56.30
57857;DHT22;43683;48.650;9.290;2023-03-02T15:53:00;9.50;56.60
57857;DHT22;43683;48.650;9.290;2023-03-02T15:55:26;9.20;56.80
57857;DHT22;43683;48.650;9.290;2023-03-02T15:57:51;9.00;57.00
57857;DHT22;43683;48.650;9.290;2023-03-02T16:00:18;8.80;57.20
57857;DHT22;43683;48.650;9.290;2023-03-02T16:02:47;8.60;57.40
57857;DHT22;43683;48.650;9.290;2023-03-02T16:05:13;8.40;57.70
57857;DHT22;43683;48.650;9.290;2023-03-02T16:07:38;8.30;57.80
57857;DHT22;43683;48.650;9.290;2023-03-02T16:10:04;8.10;58.00
57857;DHT22;43683;48.650;9.290;2023-03-02T16:12:30;7.90;58.10
57857;DHT22;43683;48.650;9.290;2023-03-02T16:14:55;7.80;58.40
57857;DHT22;43683;48.650;9.290;2023-03-02T16:17:21;7.70;58.70
57857;DHT22;43683;48.650;9.290;2023-03-02T16:19:47;7.50;59.00
57857;DHT22;43683;48.650;9.290;2023-03-02T16:22:13;7.40;59.10
57857;DHT22;43683;48.650;9.290;2023-03-02T16:24:39;7.20;59.40
57857;DHT22;43683;48.650;9.290;2023-03-02T16:27:04;7.00;59.60
57857;DHT22;43683;48.650;9.290;2023-03-02T16:29:30;6.90;59.90
57857;DHT22;43683;48.650;9.290;2023-03-02T16:31:56;6.70;60.10
57857;DHT22;43683;48.650;9.290;2023-03-02T16:34:23;6.50;60.30
57857;DHT22;43683;48.650;9.290;2023-03-02T16:36:49;6.40;60.70
57857;DHT22;43683;48.650;9.290;2023-03-02T16:39:14;6.20;60.60
57857;DHT22;43683;48.650;9.290;2023-03-02T16:41:42;6.10;60.80
57857;DHT22;43683;48.650;9.290;2023-03-02T16:44:09;5.90;61.10
57857;DHT22;43683;48.650;9.290;2023-03-02T16:46:36;5.70;61.40
57857;DHT22;43683;48.650;9.290;2023-03-02T16:49:04;5.60;61.60